createdAt,value
2023-05-09T00:00:56.549Z,149.26
2023-05-09T00:01:56.687Z,148.55
2023-05-09T00:02:56.652Z,148.47
2023-05-09T00:03:56.718Z,149.85
2023-05-09T00:04:56.679Z,149.29
2023-05-09T00:05:56.745Z,150.50
2023-05-09T00:06:56.762Z,147.96
2023-05-09T00:07:56.839Z,147.26
2023-05-09T00:08:56.885Z,147.65
2023-05-09T00:09:56.928Z,148.41
2023-05-09T00:10:56.926Z,146.57
2023-05-09T00:11:56.996Z,147.13
2023-05-09T00:12:57.095Z,147.50
2023-05-09T00:13:57.067Z,147.64
2023-05-09T00:14:57.150Z,148.39
2023-05-09T00:15:57.160Z,148.05
2023-05-09T00:16:57.297Z,150.06
2023-05-09T00:17:57.387Z,149.14
2023-05-09T00:18:57.288Z,148.46
2023-05-09T00:19:57.329Z,147.42
2023-05-09T00:20:57.402Z,147.78
2023-05-09T00:21:57.438Z,147.40
2023-05-09T00:22:57.497Z,146.82
2023-05-09T00:23:57.538Z,146.33
2023-05-09T00:24:57.600Z,148.17
2023-05-09T00:25:57.652Z,146.54
2023-05-09T00:26:57.706Z,145.58
2023-05-09T00:27:57.741Z,146.99
2023-05-09T00:28:57.776Z,146.20
2023-05-09T00:29:57.823Z,146.12
2023-05-09T00:30:57.862Z,146.24
2023-05-09T00:31:57.971Z,144.90
2023-05-09T00:32:58.025Z,147.70
2023-05-09T00:33:58.112Z,143.81
2023-05-09T00:34:58.123Z,145.31
2023-05-09T00:35:58.117Z,145.71
2023-05-09T00:36:58.178Z,143.71
2023-05-09T00:37:58.241Z,145.10
2023-05-09T00:38:58.299Z,147.27
2023-05-09T00:39:58.312Z,145.26
2023-05-09T00:40:58.359Z,144.08
2023-05-09T00:41:58.431Z,144.28
2023-05-09T00:42:58.494Z,145.63
2023-05-09T00:43:58.551Z,145.06
2023-05-09T00:44:58.550Z,144.11
2023-05-09T00:45:58.679Z,144.19
2023-05-09T00:46:58.667Z,144.82
2023-05-09T00:47:58.754Z,145.13
2023-05-09T00:48:58.777Z,145.04
2023-05-09T00:49:58.861Z,145.53
2023-05-09T00:50:58.875Z,142.56
2023-05-09T00:51:58.924Z,143.41
2023-05-09T00:52:58.967Z,144.55
2023-05-09T00:53:58.961Z,142.64
2023-05-09T00:54:59.070Z,143.83
2023-05-09T00:55:59.111Z,142.67
2023-05-09T00:56:59.159Z,145.55
2023-05-09T00:57:59.215Z,145.12
2023-05-09T00:58:59.254Z,143.13
2023-05-09T00:59:59.324Z,143.14
2023-05-09T01:00:59.414Z,142.83
2023-05-09T01:01:59.384Z,144.25
2023-05-09T01:02:59.574Z,143.60
2023-05-09T01:03:59.499Z,143.13
2023-05-09T01:04:59.563Z,144.06
2023-05-09T01:05:59.695Z,143.00
2023-05-09T01:06:59.660Z,145.00
2023-05-09T01:07:59.742Z,143.38
2023-05-09T01:08:59.806Z,143.27
2023-05-09T01:09:59.847Z,144.48
2023-05-09T01:10:59.889Z,143.78
2023-05-09T01:11:59.964Z,144.17
2023-05-09T01:13:00.136Z,144.73
2023-05-09T01:14:00.132Z,143.07
2023-05-09T01:15:00.144Z,142.01
2023-05-09T01:16:00.285Z,143.53
2023-05-09T01:17:00.247Z,142.26
2023-05-09T01:18:00.361Z,142.70
2023-05-09T01:19:00.326Z,142.52
2023-05-09T01:20:00.383Z,143.06
2023-05-09T01:21:00.489Z,144.01
2023-05-09T01:22:00.593Z,142.80
2023-05-09T01:23:00.549Z,141.92
2023-05-09T01:24:00.616Z,143.76
2023-05-09T01:25:00.675Z,140.58
2023-05-09T01:26:00.720Z,141.44
2023-05-09T01:27:00.789Z,141.77
2023-05-09T01:28:00.826Z,141.25
2023-05-09T01:29:00.904Z,143.36
2023-05-09T01:30:00.957Z,141.66
2023-05-09T01:31:01.050Z,142.32
2023-05-09T01:32:01.088Z,142.69
2023-05-09T01:33:01.163Z,142.90
2023-05-09T01:34:01.197Z,142.68
2023-05-09T01:35:01.284Z,141.39
2023-05-09T01:36:01.359Z,142.54
2023-05-09T01:37:01.362Z,142.56
2023-05-09T01:38:01.494Z,140.76
2023-05-09T01:39:01.534Z,142.58
2023-05-09T01:40:01.565Z,141.25
2023-05-09T01:41:01.637Z,141.84
2023-05-09T01:42:01.711Z,142.42
2023-05-09T01:43:01.745Z,141.18
2023-05-09T01:44:01.848Z,141.27
2023-05-09T01:45:01.856Z,140.22
2023-05-09T01:46:01.937Z,140.60
2023-05-09T01:47:02.028Z,139.96
2023-05-09T01:48:02.056Z,140.42
2023-05-09T01:49:02.109Z,139.20
2023-05-09T01:50:02.165Z,142.36
2023-05-09T01:51:02.255Z,138.16
2023-05-09T01:52:02.290Z,139.37
2023-05-09T01:53:02.344Z,141.14
2023-05-09T01:54:02.502Z,140.61
2023-05-09T01:55:02.493Z,138.95
2023-05-09T01:56:02.551Z,141.56
2023-05-09T01:57:02.569Z,136.52
2023-05-09T01:58:02.669Z,139.52
2023-05-09T01:59:02.763Z,139.77
2023-05-09T02:00:02.809Z,139.87
2023-05-09T02:01:02.889Z,140.08
2023-05-09T02:02:02.973Z,137.40
2023-05-09T02:03:02.985Z,141.49
2023-05-09T02:04:03.005Z,139.99
2023-05-09T02:05:03.087Z,136.19
2023-05-09T02:06:03.152Z,139.60
2023-05-09T02:07:03.231Z,136.50
2023-05-09T02:08:03.241Z,137.38
2023-05-09T02:09:03.329Z,139.92
2023-05-09T02:10:03.461Z,139.79
2023-05-09T02:11:03.454Z,139.89
2023-05-09T02:12:03.498Z,136.97
2023-05-09T02:13:03.577Z,139.94
2023-05-09T02:14:03.599Z,140.53
2023-05-09T02:15:03.657Z,136.94
2023-05-09T02:16:03.720Z,139.68
2023-05-09T02:17:03.801Z,139.05
2023-05-09T02:18:03.864Z,137.44
2023-05-09T02:19:03.902Z,136.74
2023-05-09T02:20:03.965Z,137.05
2023-05-09T02:21:04.039Z,137.00
2023-05-09T02:22:04.047Z,135.53
2023-05-09T02:23:04.138Z,139.26
2023-05-09T02:24:04.136Z,137.78
2023-05-09T02:25:04.172Z,136.72
2023-05-09T02:26:04.317Z,135.96
2023-05-09T02:27:04.304Z,137.80
2023-05-09T02:28:04.452Z,137.33
2023-05-09T02:29:04.337Z,136.84
2023-05-09T02:30:04.432Z,139.54
2023-05-09T02:31:04.430Z,137.30
2023-05-09T02:32:04.574Z,136.86
2023-05-09T02:33:04.592Z,137.97
2023-05-09T02:34:04.612Z,134.85
2023-05-09T02:35:04.673Z,134.85
2023-05-09T02:36:04.798Z,135.71
2023-05-09T02:37:04.834Z,135.27
2023-05-09T02:38:04.900Z,135.73
2023-05-09T02:39:04.970Z,137.84
2023-05-09T02:40:04.967Z,139.11
2023-05-09T02:41:05.088Z,135.90
2023-05-09T02:42:05.149Z,137.20
2023-05-09T02:43:05.130Z,135.52
2023-05-09T02:44:05.156Z,135.72
2023-05-09T02:45:05.239Z,135.51
2023-05-09T02:46:05.297Z,139.00
2023-05-09T02:47:05.366Z,136.37
2023-05-09T02:48:07.707Z,134.67
2023-05-09T02:49:05.443Z,136.26
2023-05-09T02:50:05.448Z,137.00
2023-05-09T02:51:05.499Z,136.36
2023-05-09T02:52:05.383Z,134.02
2023-05-09T02:53:05.393Z,133.02
2023-05-09T02:54:05.381Z,135.98
2023-05-09T02:55:05.379Z,135.59
2023-05-09T02:56:05.347Z,135.56
2023-05-09T02:57:05.383Z,135.32
2023-05-09T02:58:12.659Z,133.68
2023-05-09T02:59:06.369Z,134.06
2023-05-09T03:00:05.348Z,134.62
2023-05-09T03:01:05.462Z,135.11
2023-05-09T03:02:05.314Z,135.98
2023-05-09T03:03:05.359Z,136.31
2023-05-09T03:04:05.361Z,137.22
2023-05-09T03:05:05.343Z,134.85
2023-05-09T03:06:05.285Z,135.49
2023-05-09T03:07:05.274Z,135.55
2023-05-09T03:08:05.305Z,137.14
2023-05-09T03:09:05.374Z,134.31
2023-05-09T03:10:05.372Z,135.07
2023-05-09T03:11:05.433Z,136.92
2023-05-09T03:12:05.474Z,135.03
2023-05-09T03:13:05.526Z,134.04
2023-05-09T03:14:05.582Z,136.00
2023-05-09T03:15:05.551Z,134.44
2023-05-09T03:16:05.609Z,135.05
2023-05-09T03:17:05.618Z,134.89
2023-05-09T03:18:05.754Z,136.51
2023-05-09T03:19:05.692Z,133.69
2023-05-09T03:20:05.701Z,132.74
2023-05-09T03:21:05.705Z,136.33
2023-05-09T03:22:05.798Z,136.38
2023-05-09T03:23:05.807Z,134.06
2023-05-09T03:24:05.826Z,134.54
2023-05-09T03:25:05.896Z,133.59
2023-05-09T03:26:05.917Z,135.25
2023-05-09T03:27:05.935Z,133.03
2023-05-09T03:28:05.968Z,132.74
2023-05-09T03:29:06.038Z,133.52
2023-05-09T03:30:06.096Z,133.35
2023-05-09T03:31:06.079Z,133.09
2023-05-09T03:32:06.097Z,131.56
2023-05-09T03:33:06.208Z,132.48
2023-05-09T03:34:06.310Z,134.19
2023-05-09T03:35:06.300Z,130.97
2023-05-09T03:36:06.287Z,134.79
2023-05-09T03:37:06.304Z,131.75
2023-05-09T03:38:06.334Z,134.31
2023-05-09T03:39:06.393Z,133.02
2023-05-09T03:40:06.513Z,132.53
2023-05-09T03:41:06.450Z,131.47
2023-05-09T03:42:06.517Z,132.14
2023-05-09T03:43:06.527Z,132.05
2023-05-09T03:44:06.532Z,133.28
2023-05-09T03:45:06.557Z,132.02
2023-05-09T03:46:06.951Z,133.15
2023-05-09T03:47:06.699Z,130.77
2023-05-09T03:48:06.703Z,134.70
2023-05-09T03:49:06.695Z,132.10
2023-05-09T03:50:06.713Z,130.85
2023-05-09T03:51:06.729Z,131.03
2023-05-09T03:52:06.794Z,131.77
2023-05-09T03:53:06.810Z,131.94
2023-05-09T03:54:06.843Z,133.05
2023-05-09T03:55:06.864Z,134.15
2023-05-09T03:56:06.907Z,130.52
2023-05-09T03:57:06.908Z,131.50
2023-05-09T03:58:06.944Z,131.74
2023-05-09T03:59:06.961Z,130.98
2023-05-09T04:00:07.010Z,132.32
2023-05-09T04:01:07.066Z,130.30
2023-05-09T04:02:07.223Z,131.38
2023-05-09T04:03:07.181Z,131.68
2023-05-09T04:04:07.361Z,126.54
2023-05-09T04:05:07.184Z,126.29
2023-05-09T04:06:07.153Z,123.65
2023-05-09T04:07:07.210Z,117.39
2023-05-09T04:08:07.249Z,112.61
2023-05-09T04:09:07.266Z,113.19
2023-05-09T04:10:07.261Z,104.29
2023-05-09T04:11:07.298Z,100.86
2023-05-09T04:12:07.329Z,95.87
2023-05-09T04:13:07.372Z,94.97
2023-05-09T04:14:07.430Z,90.78
2023-05-09T04:15:07.398Z,87.00
2023-05-09T04:16:07.476Z,91.36
2023-05-09T04:17:07.564Z,87.04
2023-05-09T04:18:07.690Z,83.61
2023-05-09T04:19:07.518Z,86.25
2023-05-09T04:20:07.506Z,82.48
2023-05-09T04:21:07.498Z,83.22
2023-05-09T04:22:07.553Z,81.95
2023-05-09T04:23:07.558Z,83.47
2023-05-09T04:24:07.575Z,84.10
2023-05-09T04:25:07.570Z,86.65
2023-05-09T04:26:07.598Z,81.53
2023-05-09T04:27:07.652Z,83.66
2023-05-09T04:28:07.640Z,83.71
2023-05-09T04:29:07.700Z,86.48
2023-05-09T04:30:07.705Z,85.45
2023-05-09T04:31:07.847Z,88.44
2023-05-09T04:32:07.810Z,87.24
2023-05-09T04:33:07.893Z,88.16
2023-05-09T04:34:07.961Z,88.34
2023-05-09T04:35:07.917Z,87.62
2023-05-09T04:36:07.954Z,88.43
2023-05-09T04:37:08.001Z,87.25
2023-05-09T04:38:08.050Z,90.61
2023-05-09T04:39:08.078Z,89.69
2023-05-09T04:40:08.098Z,88.75
2023-05-09T04:41:08.143Z,88.10
2023-05-09T04:42:08.176Z,91.41
2023-05-09T04:43:08.212Z,92.62
2023-05-09T04:44:08.200Z,94.37
2023-05-09T04:45:08.236Z,91.24
2023-05-09T04:46:08.388Z,91.88
2023-05-09T04:47:08.345Z,90.60
2023-05-09T04:48:08.390Z,95.73
2023-05-09T04:49:08.361Z,90.62
2023-05-09T04:50:08.482Z,92.08
2023-05-09T04:51:08.460Z,94.59
2023-05-09T04:52:08.486Z,93.80
2023-05-09T04:53:08.528Z,93.36
2023-05-09T04:54:08.572Z,93.19
2023-05-09T04:55:08.666Z,90.43
2023-05-09T04:56:08.653Z,93.68
2023-05-09T04:57:17.422Z,94.57
2023-05-09T04:58:09.713Z,94.80
2023-05-09T04:59:08.674Z,95.15
2023-05-09T05:00:08.702Z,95.99
2023-05-09T05:01:08.708Z,96.48
2023-05-09T05:02:08.685Z,96.44
2023-05-09T05:03:08.730Z,98.32
2023-05-09T05:04:08.686Z,95.32
2023-05-09T05:05:12.133Z,96.20
2023-05-09T05:06:08.714Z,96.31
2023-05-09T05:07:08.645Z,96.24
2023-05-09T05:08:08.653Z,96.94
2023-05-09T05:09:08.616Z,96.82
2023-05-09T05:10:08.600Z,95.08
2023-05-09T05:11:08.598Z,97.33
2023-05-09T05:12:09.536Z,97.14
2023-05-09T05:13:08.627Z,96.90
2023-05-09T05:14:08.580Z,98.67
2023-05-09T05:15:08.588Z,99.85
2023-05-09T05:16:08.587Z,99.44
2023-05-09T05:17:08.607Z,99.63
2023-05-09T05:18:08.624Z,99.99
2023-05-09T05:19:08.586Z,98.94
2023-05-09T05:20:08.557Z,99.92
2023-05-09T05:21:08.527Z,98.07
2023-05-09T05:22:08.594Z,99.32
2023-05-09T05:23:08.554Z,102.42
2023-05-09T05:24:08.504Z,101.89
2023-05-09T05:25:08.504Z,100.19
2023-05-09T05:26:08.500Z,98.35
2023-05-09T05:27:08.507Z,100.81
2023-05-09T05:28:08.471Z,100.30
2023-05-09T05:29:08.480Z,100.83
2023-05-09T05:30:08.462Z,104.63
2023-05-09T05:31:08.544Z,101.60
2023-05-09T05:32:08.498Z,102.93
2023-05-09T05:33:08.458Z,101.77
2023-05-09T05:34:08.454Z,104.32
2023-05-09T05:35:08.485Z,106.14
2023-05-09T05:36:08.470Z,109.78
2023-05-09T05:37:08.469Z,107.83
2023-05-09T05:38:08.612Z,108.87
2023-05-09T05:39:08.608Z,113.47
2023-05-09T05:40:08.666Z,118.23
2023-05-09T05:41:08.657Z,127.01
2023-05-09T05:42:08.661Z,130.76
2023-05-09T05:43:08.712Z,136.01
2023-05-09T05:44:08.724Z,142.54
2023-05-09T05:45:08.720Z,148.30
2023-05-09T05:46:08.713Z,151.39
2023-05-09T05:47:08.704Z,158.86
2023-05-09T05:48:08.776Z,159.46
2023-05-09T05:49:08.754Z,166.25
2023-05-09T05:50:09.193Z,165.69
2023-05-09T05:51:08.768Z,166.92
2023-05-09T05:52:08.743Z,163.88
2023-05-09T05:53:08.753Z,165.68
2023-05-09T05:54:08.813Z,163.99
2023-05-09T05:55:08.755Z,161.27
2023-05-09T05:56:08.788Z,162.35
2023-05-09T05:57:08.776Z,160.07
2023-05-09T05:58:08.772Z,153.10
2023-05-09T05:59:09.502Z,147.80
2023-05-09T06:00:08.789Z,145.82
2023-05-09T06:01:08.811Z,140.17
2023-05-09T06:02:08.857Z,144.02
2023-05-09T06:03:09.002Z,142.54
2023-05-09T06:04:08.851Z,137.97
2023-05-09T06:05:08.823Z,135.57
2023-05-09T06:06:08.828Z,133.91
2023-05-09T06:07:08.842Z,132.13
2023-05-09T06:08:08.940Z,127.97
2023-05-09T06:09:08.860Z,127.40
2023-05-09T06:10:08.996Z,126.96
2023-05-09T06:11:08.913Z,123.15
2023-05-09T06:12:08.933Z,122.44
2023-05-09T06:13:08.970Z,125.59
2023-05-09T06:14:08.940Z,125.52
2023-05-09T06:15:08.949Z,127.74
2023-05-09T06:16:18.674Z,123.75
2023-05-09T06:17:10.009Z,123.78
2023-05-09T06:18:09.084Z,121.09
2023-05-09T06:19:08.991Z,117.62
2023-05-09T06:20:08.923Z,117.92
2023-05-09T06:21:08.937Z,116.82
2023-05-09T06:22:08.942Z,117.76
2023-05-09T06:23:08.910Z,118.22
2023-05-09T06:24:16.699Z,118.87
2023-05-09T06:25:11.214Z,119.20
2023-05-09T06:26:09.007Z,119.68
2023-05-09T06:27:08.918Z,120.26
2023-05-09T06:28:08.877Z,121.93
2023-05-09T06:29:08.902Z,118.02
2023-05-09T06:30:23.997Z,115.20
2023-05-09T06:31:10.022Z,115.46
2023-05-09T06:32:08.872Z,116.17
2023-05-09T06:33:08.914Z,117.14
2023-05-09T06:34:08.879Z,118.76
2023-05-09T06:35:08.861Z,119.36
2023-05-09T06:36:08.913Z,118.04
2023-05-09T06:37:08.838Z,114.92
2023-05-09T06:38:08.841Z,114.66
2023-05-09T06:39:08.844Z,116.41
2023-05-09T06:40:08.871Z,114.50
2023-05-09T06:41:08.863Z,116.81
2023-05-09T06:42:08.869Z,118.91
2023-05-09T06:43:08.811Z,114.06
2023-05-09T06:44:08.837Z,115.22
2023-05-09T06:45:08.877Z,114.74
2023-05-09T06:46:08.883Z,118.76
2023-05-09T06:47:08.848Z,117.16
2023-05-09T06:48:08.897Z,114.15
2023-05-09T06:49:08.880Z,115.66
2023-05-09T06:50:08.855Z,113.22
2023-05-09T06:51:08.863Z,109.91
2023-05-09T06:52:08.963Z,107.35
2023-05-09T06:53:08.984Z,109.24
2023-05-09T06:54:09.060Z,110.16
2023-05-09T06:55:09.127Z,111.48
2023-05-09T06:56:09.187Z,110.01
2023-05-09T06:57:09.234Z,113.00
2023-05-09T06:58:09.318Z,110.09
2023-05-09T06:59:09.258Z,111.41
2023-05-09T07:00:09.340Z,109.43
2023-05-09T07:01:09.307Z,108.89
2023-05-09T07:02:09.360Z,109.58
2023-05-09T07:03:09.470Z,108.97
2023-05-09T07:04:09.460Z,108.49
2023-05-09T07:05:09.557Z,109.07
2023-05-09T07:06:09.552Z,109.70
2023-05-09T07:07:09.612Z,112.73
2023-05-09T07:08:09.666Z,112.50
2023-05-09T07:09:09.710Z,111.31
2023-05-09T07:10:11.853Z,109.83
2023-05-09T07:11:09.740Z,111.27
2023-05-09T07:12:09.757Z,115.67
2023-05-09T07:13:09.791Z,111.29
2023-05-09T07:14:09.877Z,115.08
2023-05-09T07:15:09.740Z,120.35
2023-05-09T07:16:09.769Z,126.22
2023-05-09T07:17:22.212Z,129.46
2023-05-09T07:18:10.841Z,129.92
2023-05-09T07:19:09.740Z,130.76
2023-05-09T07:20:09.686Z,133.06
2023-05-09T07:21:09.706Z,134.99
2023-05-09T07:22:09.698Z,141.88
2023-05-09T07:23:09.665Z,142.84
2023-05-09T07:24:09.665Z,142.73
2023-05-09T07:25:10.215Z,146.39
2023-05-09T07:26:09.683Z,142.71
2023-05-09T07:27:09.635Z,146.12
2023-05-09T07:28:09.647Z,147.57
2023-05-09T07:29:09.618Z,146.93
2023-05-09T07:30:09.714Z,147.56
2023-05-09T07:31:09.626Z,148.71
2023-05-09T07:32:09.688Z,154.43
2023-05-09T07:33:09.678Z,164.33
2023-05-09T07:34:09.604Z,162.78
2023-05-09T07:35:10.277Z,168.64
2023-05-09T07:36:09.701Z,174.17
2023-05-09T07:37:09.705Z,182.67
2023-05-09T07:38:09.715Z,187.26
2023-05-09T07:39:09.733Z,181.51
2023-05-09T07:40:09.805Z,187.52
2023-05-09T07:41:09.814Z,192.69
2023-05-09T07:42:09.876Z,194.48
2023-05-09T07:43:09.855Z,195.06
2023-05-09T07:44:09.957Z,192.04
2023-05-09T07:45:09.935Z,192.07
2023-05-09T07:46:10.105Z,191.85
2023-05-09T07:47:09.973Z,190.65
2023-05-09T07:48:10.026Z,192.42
2023-05-09T07:49:10.010Z,190.41
2023-05-09T07:50:10.061Z,189.18
2023-05-09T07:51:10.084Z,187.09
2023-05-09T07:52:10.067Z,187.08
2023-05-09T07:53:10.109Z,181.34
2023-05-09T07:54:10.235Z,180.79
2023-05-09T07:55:10.194Z,175.76
2023-05-09T07:56:10.201Z,178.70
2023-05-09T07:57:10.205Z,174.67
2023-05-09T07:58:10.215Z,175.26
2023-05-09T07:59:10.272Z,180.61
2023-05-09T08:00:10.281Z,176.84
2023-05-09T08:01:10.289Z,176.72
2023-05-09T08:02:10.383Z,174.81
2023-05-09T08:03:10.536Z,170.11
2023-05-09T08:04:10.420Z,175.80
2023-05-09T08:05:10.370Z,173.49
2023-05-09T08:06:10.365Z,173.87
2023-05-09T08:07:10.409Z,185.73
2023-05-09T08:08:10.418Z,186.31
2023-05-09T08:09:10.385Z,190.14
2023-05-09T08:10:10.418Z,192.53
2023-05-09T08:11:10.411Z,194.68
2023-05-09T08:12:10.399Z,190.82
2023-05-09T08:13:10.469Z,186.32
2023-05-09T08:14:10.424Z,184.59
2023-05-09T08:15:10.433Z,188.01
2023-05-09T08:16:10.477Z,185.16
2023-05-09T08:17:10.426Z,188.29
2023-05-09T08:18:10.494Z,189.54
2023-05-09T08:19:10.421Z,186.63
2023-05-09T08:20:10.399Z,187.43
2023-05-09T08:21:10.407Z,189.84
2023-05-09T08:22:10.419Z,192.41
2023-05-09T08:23:10.457Z,191.78
2023-05-09T08:24:10.435Z,188.06
2023-05-09T08:25:10.705Z,183.24
2023-05-09T08:26:10.522Z,171.96
2023-05-09T08:27:10.462Z,169.47
2023-05-09T08:28:10.490Z,174.32
2023-05-09T08:29:10.466Z,168.36
2023-05-09T08:30:10.471Z,163.47
2023-05-09T08:31:10.502Z,170.94
2023-05-09T08:32:10.446Z,176.64
2023-05-09T08:33:10.587Z,167.60
2023-05-09T08:34:10.559Z,152.28
2023-05-09T08:35:10.526Z,118.06
2023-05-09T08:36:10.512Z,95.62
2023-05-09T08:37:11.841Z,69.03
2023-05-09T08:38:10.623Z,71.01
2023-05-09T08:39:10.622Z,70.95
2023-05-09T08:40:10.621Z,67.07
2023-05-09T08:41:10.661Z,80.44
2023-05-09T08:42:10.700Z,64.81
2023-05-09T08:43:10.731Z,67.21
2023-05-09T08:44:10.786Z,69.92
2023-05-09T08:45:10.819Z,73.53
2023-05-09T08:46:10.887Z,70.92
2023-05-09T08:47:10.901Z,80.72
2023-05-09T08:48:10.914Z,108.57
2023-05-09T08:49:10.939Z,112.59
2023-05-09T08:50:11.032Z,89.01
2023-05-09T08:51:11.023Z,75.56
2023-05-09T08:52:11.021Z,74.54
2023-05-09T08:53:11.120Z,72.23
2023-05-09T08:54:11.121Z,66.38
2023-05-09T08:55:11.189Z,70.20
2023-05-09T08:56:11.143Z,65.75
2023-05-09T08:57:11.181Z,67.21
2023-05-09T08:58:11.657Z,69.26
2023-05-09T08:59:11.250Z,70.94
2023-05-09T09:00:11.333Z,69.46
2023-05-09T09:01:11.318Z,73.39
2023-05-09T09:02:11.311Z,70.56
2023-05-09T09:03:11.265Z,69.65
2023-05-09T09:04:11.242Z,69.99
2023-05-09T09:05:23.952Z,69.64
2023-05-09T09:06:12.305Z,69.94
2023-05-09T09:07:11.223Z,70.85
2023-05-09T09:08:11.253Z,72.28
2023-05-09T09:09:11.210Z,73.24
2023-05-09T09:10:11.214Z,82.06
2023-05-09T09:11:11.234Z,78.96
2023-05-09T09:12:11.189Z,81.45
2023-05-09T09:13:11.209Z,80.50
2023-05-09T09:14:11.193Z,79.34
2023-05-09T09:15:11.178Z,80.47
2023-05-09T09:16:11.212Z,85.81
2023-05-09T09:17:11.161Z,91.19
2023-05-09T09:18:11.145Z,87.05
2023-05-09T09:19:11.142Z,90.53
2023-05-09T09:20:11.178Z,84.77
2023-05-09T09:21:11.160Z,84.71
2023-05-09T09:22:11.279Z,86.07
2023-05-09T09:23:11.258Z,83.79
2023-05-09T09:24:11.300Z,81.70
2023-05-09T09:25:11.350Z,83.89
2023-05-09T09:26:11.435Z,84.86
2023-05-09T09:27:11.500Z,80.49
2023-05-09T09:28:11.539Z,81.51
2023-05-09T09:29:11.602Z,78.28
2023-05-09T09:30:11.695Z,78.91
2023-05-09T09:31:11.721Z,84.62
2023-05-09T09:32:11.764Z,100.02
2023-05-09T09:33:11.749Z,104.49
2023-05-09T09:34:11.788Z,107.72
2023-05-09T09:35:11.833Z,111.13
2023-05-09T09:36:12.752Z,98.71
2023-05-09T09:37:11.958Z,92.00
2023-05-09T09:38:12.110Z,90.86
2023-05-09T09:39:12.057Z,85.97
2023-05-09T09:40:12.327Z,82.11
2023-05-09T09:41:12.153Z,81.01
2023-05-09T09:42:12.211Z,76.51
2023-05-09T09:43:12.327Z,67.71
2023-05-09T09:44:12.627Z,58.23
2023-05-09T09:45:12.381Z,51.23
2023-05-09T09:46:12.470Z,47.33
2023-05-09T09:47:12.465Z,52.37
2023-05-09T09:48:12.569Z,43.23
2023-05-09T09:49:12.649Z,40.73
2023-05-09T09:50:12.764Z,41.05
2023-05-09T09:51:12.687Z,44.62
2023-05-09T09:52:12.800Z,49.63
2023-05-09T09:53:12.845Z,47.46
2023-05-09T09:54:12.981Z,47.22
2023-05-09T09:55:12.953Z,52.96
2023-05-09T09:56:13.017Z,47.17
2023-05-09T09:57:13.095Z,46.66
2023-05-09T09:58:13.121Z,57.26
2023-05-09T09:59:13.171Z,59.13
2023-05-09T10:00:13.438Z,53.22
2023-05-09T10:01:13.368Z,49.16
2023-05-09T10:02:13.348Z,51.75
2023-05-09T10:03:13.501Z,64.88
2023-05-09T10:04:13.510Z,76.43
2023-05-09T10:05:13.552Z,79.58
2023-05-09T10:06:13.536Z,52.15
2023-05-09T10:07:15.057Z,65.38
2023-05-09T10:08:13.703Z,78.06
2023-05-09T10:09:13.675Z,58.35
2023-05-09T10:10:13.973Z,52.45
2023-05-09T10:11:13.790Z,35.49
2023-05-09T10:12:13.797Z,26.26
2023-05-09T10:13:13.795Z,47.76
2023-05-09T10:14:13.803Z,39.34
2023-05-09T10:15:13.811Z,27.10
2023-05-09T10:16:13.933Z,28.81
2023-05-09T10:17:14.085Z,25.89
2023-05-09T10:18:13.898Z,21.74
2023-05-09T10:19:13.902Z,23.48
2023-05-09T10:20:14.075Z,25.00
2023-05-09T10:21:13.904Z,45.45
2023-05-09T10:22:13.919Z,29.13
2023-05-09T10:23:13.909Z,28.73
2023-05-09T10:24:13.918Z,32.30
2023-05-09T10:25:14.077Z,19.65
2023-05-09T10:26:14.016Z,27.82
2023-05-09T10:27:13.960Z,62.18
2023-05-09T10:28:14.138Z,84.72
2023-05-09T10:29:13.955Z,91.73
2023-05-09T10:30:13.987Z,115.83
2023-05-09T10:31:14.045Z,143.81
2023-05-09T10:32:13.990Z,114.51
2023-05-09T10:33:14.029Z,88.28
2023-05-09T10:34:14.095Z,79.85
2023-05-09T10:35:14.386Z,77.77
2023-05-09T10:36:14.218Z,69.24
2023-05-09T10:37:14.265Z,63.42
2023-05-09T10:38:14.366Z,57.64
2023-05-09T10:39:14.376Z,58.89
2023-05-09T10:40:14.400Z,62.07
2023-05-09T10:41:14.469Z,62.61
2023-05-09T10:42:14.570Z,58.66
2023-05-09T10:43:14.522Z,57.61
2023-05-09T10:44:14.576Z,58.21
2023-05-09T10:45:14.776Z,64.06
2023-05-09T10:46:14.656Z,89.39
2023-05-09T10:47:14.660Z,79.81
2023-05-09T10:48:14.651Z,80.76
2023-05-09T10:49:14.743Z,82.21
2023-05-09T10:50:14.718Z,82.71
2023-05-09T10:51:14.765Z,89.50
2023-05-09T10:52:14.775Z,91.92
2023-05-09T10:53:14.841Z,97.36
2023-05-09T10:54:14.855Z,84.45
2023-05-09T10:55:15.159Z,80.33
2023-05-09T10:56:14.866Z,85.05
2023-05-09T10:57:14.901Z,92.42
2023-05-09T10:58:15.029Z,92.46
2023-05-09T10:59:14.943Z,87.83
2023-05-09T11:00:14.979Z,91.50
2023-05-09T11:01:15.053Z,94.48
2023-05-09T11:02:15.013Z,95.34
2023-05-09T11:03:15.076Z,99.72
2023-05-09T11:04:15.106Z,95.92
2023-05-09T11:05:15.293Z,91.70
2023-05-09T11:06:15.099Z,87.51
2023-05-09T11:07:15.096Z,86.90
2023-05-09T11:08:15.107Z,73.80
2023-05-09T11:09:15.124Z,75.65
2023-05-09T11:10:15.130Z,73.67
2023-05-09T11:11:15.136Z,81.51
2023-05-09T11:12:15.138Z,74.10
2023-05-09T11:13:15.653Z,80.80
2023-05-09T11:14:15.247Z,77.14
2023-05-09T11:15:15.457Z,83.83
2023-05-09T11:16:15.286Z,81.77
2023-05-09T11:17:15.204Z,76.64
2023-05-09T11:18:15.549Z,105.68
2023-05-09T11:19:15.257Z,132.54
2023-05-09T11:20:15.645Z,131.92
2023-05-09T11:21:15.579Z,128.99
2023-05-09T11:22:16.138Z,109.46
2023-05-09T11:23:15.620Z,103.84
2023-05-09T11:24:15.578Z,115.15
2023-05-09T11:25:15.702Z,114.94
2023-05-09T11:26:15.649Z,99.51
2023-05-09T11:27:15.679Z,0.00
2023-05-09T11:28:15.804Z,0.33
2023-05-09T11:29:15.837Z,15.92
2023-05-09T11:30:15.974Z,23.72
2023-05-09T11:31:15.966Z,25.00
2023-05-09T11:32:16.108Z,25.64
2023-05-09T11:33:16.076Z,40.39
2023-05-09T11:34:16.072Z,0.00
2023-05-09T11:35:16.502Z,0.00
2023-05-09T11:36:16.148Z,0.00
2023-05-09T11:37:16.229Z,0.00
2023-05-09T11:38:16.249Z,0.00
2023-05-09T11:39:16.287Z,2.48
2023-05-09T11:40:16.407Z,65.27
2023-05-09T11:41:16.333Z,58.23
2023-05-09T11:42:16.353Z,36.32
2023-05-09T11:43:16.371Z,26.86
2023-05-09T11:44:16.395Z,69.98
2023-05-09T11:45:16.633Z,91.21
2023-05-09T11:46:16.480Z,103.56
2023-05-09T11:47:16.378Z,85.06
2023-05-09T11:48:16.389Z,32.00
2023-05-09T11:49:16.384Z,26.95
2023-05-09T11:50:16.486Z,0.00
2023-05-09T11:51:16.529Z,0.00
2023-05-09T11:52:16.507Z,0.00
2023-05-09T11:53:16.564Z,0.00
2023-05-09T11:54:16.620Z,12.39
2023-05-09T11:55:16.931Z,22.79
2023-05-09T11:56:16.759Z,41.63
2023-05-09T11:57:16.788Z,78.21
2023-05-09T11:58:16.829Z,94.02
2023-05-09T11:59:16.892Z,73.47
2023-05-09T12:00:16.933Z,81.38
2023-05-09T12:01:16.998Z,122.07
2023-05-09T12:02:17.132Z,132.40
2023-05-09T12:03:17.159Z,160.00
2023-05-09T12:04:17.095Z,187.38
2023-05-09T12:05:17.263Z,177.37
2023-05-09T12:06:17.059Z,209.72
2023-05-09T12:07:17.093Z,251.11
2023-05-09T12:08:17.104Z,249.93
2023-05-09T12:09:17.130Z,249.41
2023-05-09T12:10:17.168Z,237.33
2023-05-09T12:11:17.116Z,215.12
2023-05-09T12:12:17.126Z,193.11
2023-05-09T12:13:17.246Z,189.02
2023-05-09T12:14:17.220Z,190.31
2023-05-09T12:15:17.622Z,193.23
2023-05-09T12:16:17.368Z,202.20
2023-05-09T12:17:17.364Z,207.56
2023-05-09T12:18:17.543Z,218.11
2023-05-09T12:19:17.485Z,228.50
2023-05-09T12:20:17.560Z,236.20
2023-05-09T12:21:17.601Z,242.98
2023-05-09T12:22:17.644Z,247.92
2023-05-09T12:23:17.690Z,250.00
2023-05-09T12:24:17.711Z,250.00
2023-05-09T12:25:17.953Z,250.60
2023-05-09T12:26:17.752Z,250.00
2023-05-09T12:27:17.811Z,250.00
2023-05-09T12:28:17.868Z,250.00
2023-05-09T12:29:17.893Z,249.50
2023-05-09T12:30:17.926Z,248.99
2023-05-09T12:31:18.012Z,248.68
2023-05-09T12:32:18.051Z,249.64
2023-05-09T12:33:18.064Z,247.83
2023-05-09T12:34:18.181Z,249.27
2023-05-09T12:35:18.100Z,248.26
2023-05-09T12:36:18.138Z,250.00
2023-05-09T12:37:18.187Z,248.28